SWR340 LSZH-EGLL
Flight info
| Callsign | SWR340 |
|---|---|
| Flight time | 1h 26m |
| Altitude | 38000 |
| Route | DEGES Z1 ETAGO DCT LIRSU DCT DENUT L608 LOGAN |
| Aircraft | A346/H-SDE2E3FGHIJ3J4J5M1RWXY/LB1D1 |
Departure
| Time | 2026-04-26 08:19 |
|---|---|
| Airport | Zürich Airport (LSZH) |
Arrival
| Time | 2026-04-26 09:46 |
|---|---|
| Airport | London Heathrow Airport (EGLL) |
| Time | Latitude | Longitude | Altitude | Speed | Heading |
|---|---|---|---|---|---|
| 2026-04-26 08:09 | 47.45212 | 8.55498 | 1399 ft | 13 kts | 155° |
| 2026-04-26 08:09 | 47.45119 | 8.55562 | 1399 ft | 13 kts | 155° |
| 2026-04-26 08:10 | 47.45056 | 8.55605 | 1399 ft | 5 kts | 155° |
| 2026-04-26 08:10 | 47.45011 | 8.55636 | 1398 ft | 9 kts | 155° |
| 2026-04-26 08:10 | 47.44937 | 8.55687 | 1398 ft | 13 kts | 155° |
| 2026-04-26 08:10 | 47.44877 | 8.55728 | 1398 ft | 0 kts | 155° |
| 2026-04-26 08:11 | 47.44876 | 8.55728 | 1398 ft | 0 kts | 155° |
| 2026-04-26 08:11 | 47.44863 | 8.55737 | 1398 ft | 0 kts | 155° |
| 2026-04-26 08:17 | 47.44861 | 8.55738 | 1398 ft | 1 kts | 154° |
| 2026-04-26 08:17 | 47.44848 | 8.55748 | 1398 ft | 5 kts | 154° |
| 2026-04-26 08:17 | 47.44799 | 8.55781 | 1398 ft | 8 kts | 155° |
| 2026-04-26 08:17 | 47.44737 | 8.55824 | 1398 ft | 11 kts | 155° |
| 2026-04-26 08:18 | 47.44662 | 8.55846 | 1399 ft | 10 kts | 197° |
| 2026-04-26 08:18 | 47.44601 | 8.55767 | 1397 ft | 13 kts | 239° |
| 2026-04-26 08:18 | 47.44579 | 8.55678 | 1395 ft | 1 kts | 279° |
| 2026-04-26 08:18 | 47.44594 | 8.55646 | 1395 ft | 4 kts | 314° |
| 2026-04-26 08:19 | 47.44614 | 8.55629 | 1395 ft | 12 kts | 331° |
| 2026-04-26 08:19 | 47.44989 | 8.55368 | 1395 ft | 104 kts | 335° |
| 2026-04-26 08:19 | 47.45896 | 8.54743 | 1402 ft | 177 kts | 335° |
| 2026-04-26 08:19 | 47.47065 | 8.53934 | 2071 ft | 191 kts | 335° |
| 2026-04-26 08:20 | 47.48240 | 8.53107 | 3021 ft | 194 kts | 336° |
| 2026-04-26 08:20 | 47.49462 | 8.52220 | 3938 ft | 204 kts | 335° |
| 2026-04-26 08:20 | 47.50785 | 8.51250 | 4736 ft | 223 kts | 336° |
| 2026-04-26 08:20 | 47.52217 | 8.50262 | 5646 ft | 238 kts | 342° |
| 2026-04-26 08:21 | 47.53854 | 8.50060 | 6588 ft | 248 kts | 16° |
| 2026-04-26 08:21 | 47.55330 | 8.51360 | 7642 ft | 256 kts | 49° |
| 2026-04-26 08:21 | 47.56152 | 8.53682 | 8696 ft | 264 kts | 77° |
| 2026-04-26 08:21 | 47.56130 | 8.56345 | 9549 ft | 271 kts | 105° |
| 2026-04-26 08:22 | 47.55428 | 8.58978 | 10287 ft | 279 kts | 111° |
| 2026-04-26 08:22 | 47.54678 | 8.61705 | 10927 ft | 292 kts | 109° |
| 2026-04-26 08:22 | 47.53975 | 8.64573 | 11389 ft | 309 kts | 108° |
| 2026-04-26 08:22 | 47.53245 | 8.67666 | 11823 ft | 328 kts | 107° |
| 2026-04-26 08:23 | 47.52827 | 8.71048 | 12187 ft | 344 kts | 85° |
| 2026-04-26 08:23 | 47.53498 | 8.74507 | 12592 ft | 358 kts | 59° |
| 2026-04-26 08:23 | 47.55179 | 8.77245 | 12985 ft | 372 kts | 34° |
| 2026-04-26 08:23 | 47.57544 | 8.78828 | 13551 ft | 381 kts | 17° |
| 2026-04-26 08:24 | 47.60115 | 8.79942 | 14283 ft | 387 kts | 15° |
| 2026-04-26 08:24 | 47.62684 | 8.81086 | 14982 ft | 391 kts | 17° |
| 2026-04-26 08:24 | 47.65267 | 8.82339 | 15729 ft | 396 kts | 18° |
| 2026-04-26 08:24 | 47.67887 | 8.83698 | 16480 ft | 400 kts | 19° |
| 2026-04-26 08:25 | 47.70481 | 8.85102 | 17189 ft | 405 kts | 19° |
| 2026-04-26 08:25 | 47.73158 | 8.86590 | 17882 ft | 410 kts | 20° |
| 2026-04-26 08:25 | 47.75821 | 8.88094 | 18551 ft | 414 kts | 20° |
| 2026-04-26 08:25 | 47.78490 | 8.89617 | 19259 ft | 418 kts | 20° |
| 2026-04-26 08:26 | 47.81208 | 8.91176 | 19928 ft | 422 kts | 20° |
| 2026-04-26 08:26 | 47.83961 | 8.92763 | 20599 ft | 427 kts | 20° |
| 2026-04-26 08:26 | 47.86745 | 8.94371 | 21237 ft | 431 kts | 20° |
| 2026-04-26 08:26 | 47.89521 | 8.95976 | 21847 ft | 435 kts | 20° |
| 2026-04-26 08:27 | 47.92368 | 8.97627 | 22475 ft | 439 kts | 20° |
| 2026-04-26 08:27 | 47.95208 | 8.99277 | 23060 ft | 443 kts | 20° |
| 2026-04-26 08:27 | 47.98072 | 9.00942 | 23647 ft | 447 kts | 19° |
| 2026-04-26 08:27 | 48.01014 | 9.02653 | 24246 ft | 451 kts | 19° |
| 2026-04-26 08:28 | 48.03939 | 9.04357 | 24803 ft | 455 kts | 19° |
| 2026-04-26 08:28 | 48.06876 | 9.06071 | 25358 ft | 459 kts | 19° |
| 2026-04-26 08:28 | 48.09889 | 9.07830 | 25913 ft | 462 kts | 19° |
| 2026-04-26 08:28 | 48.12856 | 9.09567 | 26453 ft | 466 kts | 19° |
| 2026-04-26 08:29 | 48.15881 | 9.11339 | 26976 ft | 470 kts | 19° |
| 2026-04-26 08:29 | 48.18941 | 9.13135 | 27474 ft | 474 kts | 19° |
| 2026-04-26 08:29 | 48.22022 | 9.14944 | 27968 ft | 477 kts | 19° |
| 2026-04-26 08:29 | 48.25120 | 9.16767 | 28460 ft | 481 kts | 19° |
| 2026-04-26 08:30 | 48.28227 | 9.18596 | 28968 ft | 483 kts | 19° |
| 2026-04-26 08:30 | 48.31369 | 9.20450 | 29674 ft | 482 kts | 19° |
| 2026-04-26 08:30 | 48.34450 | 9.22273 | 30395 ft | 479 kts | 19° |
| 2026-04-26 08:30 | 48.37529 | 9.24095 | 31061 ft | 477 kts | 19° |
| 2026-04-26 08:31 | 48.40587 | 9.25906 | 31700 ft | 476 kts | 19° |
| 2026-04-26 08:31 | 48.43684 | 9.27743 | 32305 ft | 475 kts | 19° |
| 2026-04-26 08:31 | 48.46742 | 9.29559 | 32903 ft | 474 kts | 19° |
| 2026-04-26 08:31 | 48.49786 | 9.31369 | 33496 ft | 472 kts | 19° |
| 2026-04-26 08:32 | 48.52824 | 9.33180 | 34082 ft | 471 kts | 19° |
| 2026-04-26 08:32 | 48.55869 | 9.34998 | 34642 ft | 469 kts | 19° |
| 2026-04-26 08:32 | 48.58904 | 9.36810 | 35122 ft | 468 kts | 19° |
| 2026-04-26 08:32 | 48.61929 | 9.38611 | 35549 ft | 467 kts | 18° |
| 2026-04-26 08:33 | 48.65025 | 9.39963 | 35928 ft | 464 kts | 8° |
| 2026-04-26 08:33 | 48.68192 | 9.40416 | 36302 ft | 460 kts | 356° |
| 2026-04-26 08:33 | 48.71332 | 9.39900 | 36643 ft | 456 kts | 345° |
| 2026-04-26 08:33 | 48.74342 | 9.38427 | 36966 ft | 453 kts | 333° |
| 2026-04-26 08:34 | 48.77074 | 9.36068 | 37259 ft | 452 kts | 322° |
| 2026-04-26 08:34 | 48.79427 | 9.32936 | 37535 ft | 451 kts | 310° |
| 2026-04-26 08:34 | 48.81398 | 9.29289 | 37805 ft | 452 kts | 306° |
| 2026-04-26 08:34 | 48.83331 | 9.25481 | 38047 ft | 454 kts | 306° |
| 2026-04-26 08:35 | 48.85232 | 9.21699 | 38238 ft | 457 kts | 306° |
| 2026-04-26 08:35 | 48.87151 | 9.17884 | 38236 ft | 458 kts | 306° |
| 2026-04-26 08:35 | 48.91036 | 9.10178 | 38244 ft | 459 kts | 306° |
| 2026-04-26 08:36 | 48.94881 | 9.02560 | 38243 ft | 459 kts | 306° |
| 2026-04-26 08:36 | 48.98765 | 8.94847 | 38242 ft | 459 kts | 306° |
| 2026-04-26 08:37 | 49.02629 | 8.87158 | 38238 ft | 459 kts | 306° |
| 2026-04-26 08:37 | 49.06509 | 8.79416 | 38240 ft | 459 kts | 306° |
| 2026-04-26 08:38 | 49.10371 | 8.71689 | 38243 ft | 459 kts | 306° |
| 2026-04-26 08:38 | 49.14237 | 8.63931 | 38239 ft | 459 kts | 306° |
| 2026-04-26 08:39 | 49.18108 | 8.56141 | 38248 ft | 459 kts | 306° |
| 2026-04-26 08:39 | 49.21973 | 8.48338 | 38250 ft | 460 kts | 306° |
| 2026-04-26 08:40 | 49.25814 | 8.40564 | 38247 ft | 460 kts | 306° |
| 2026-04-26 08:40 | 49.29689 | 8.32695 | 38248 ft | 460 kts | 305° |
| 2026-04-26 08:41 | 49.33522 | 8.24890 | 38243 ft | 460 kts | 305° |
| 2026-04-26 08:41 | 49.37376 | 8.17018 | 38240 ft | 460 kts | 305° |
| 2026-04-26 08:42 | 49.41193 | 8.09200 | 38238 ft | 461 kts | 305° |
| 2026-04-26 08:42 | 49.45023 | 8.01333 | 38232 ft | 461 kts | 305° |
| 2026-04-26 08:43 | 49.48862 | 7.93424 | 38233 ft | 461 kts | 305° |
| 2026-04-26 08:43 | 49.52668 | 7.85557 | 38233 ft | 461 kts | 306° |
| 2026-04-26 08:44 | 49.56488 | 7.77640 | 38239 ft | 461 kts | 306° |
| 2026-04-26 08:44 | 49.60311 | 7.69693 | 38235 ft | 461 kts | 306° |
| 2026-04-26 08:45 | 49.64089 | 7.61814 | 38228 ft | 461 kts | 306° |
| 2026-04-26 08:45 | 49.67887 | 7.53872 | 38232 ft | 461 kts | 306° |
| 2026-04-26 08:46 | 49.71694 | 7.45888 | 38235 ft | 460 kts | 306° |
| 2026-04-26 08:46 | 49.75463 | 7.37957 | 38247 ft | 460 kts | 306° |
| 2026-04-26 08:47 | 49.79227 | 7.30015 | 38242 ft | 460 kts | 305° |
| 2026-04-26 08:47 | 49.83017 | 7.21993 | 38243 ft | 460 kts | 305° |
| 2026-04-26 08:48 | 49.86780 | 7.14003 | 38238 ft | 460 kts | 305° |
| 2026-04-26 08:48 | 49.90521 | 7.06039 | 38251 ft | 461 kts | 305° |
| 2026-04-26 08:49 | 49.94257 | 6.98060 | 38244 ft | 460 kts | 305° |
| 2026-04-26 08:49 | 49.98017 | 6.90006 | 38253 ft | 460 kts | 305° |
| 2026-04-26 08:50 | 50.01737 | 6.82014 | 38254 ft | 460 kts | 305° |
| 2026-04-26 08:50 | 50.05501 | 6.73902 | 38256 ft | 460 kts | 305° |
| 2026-04-26 08:51 | 50.11086 | 6.61819 | 38255 ft | 460 kts | 305° |
| 2026-04-26 08:52 | 50.14843 | 6.53660 | 38241 ft | 459 kts | 305° |
| 2026-04-26 08:52 | 50.18520 | 6.45566 | 38241 ft | 459 kts | 303° |
| 2026-04-26 08:53 | 50.21942 | 6.37080 | 38236 ft | 459 kts | 301° |
| 2026-04-26 08:53 | 50.25262 | 6.28634 | 38242 ft | 459 kts | 301° |
| 2026-04-26 08:54 | 50.28609 | 6.20097 | 38249 ft | 459 kts | 301° |
| 2026-04-26 08:54 | 50.31921 | 6.11633 | 38244 ft | 459 kts | 301° |
| 2026-04-26 08:55 | 50.35238 | 6.03130 | 38245 ft | 458 kts | 301° |
| 2026-04-26 08:55 | 50.38571 | 5.94563 | 38243 ft | 458 kts | 301° |
| 2026-04-26 08:56 | 50.41872 | 5.86048 | 38243 ft | 458 kts | 301° |
| 2026-04-26 08:56 | 50.45163 | 5.77535 | 38261 ft | 458 kts | 301° |
| 2026-04-26 08:57 | 50.48436 | 5.69036 | 38268 ft | 459 kts | 301° |
| 2026-04-26 08:57 | 50.51734 | 5.60449 | 38270 ft | 458 kts | 301° |
| 2026-04-26 08:58 | 50.54990 | 5.51941 | 38278 ft | 458 kts | 301° |
| 2026-04-26 08:58 | 50.58277 | 5.43322 | 38283 ft | 459 kts | 301° |
| 2026-04-26 08:59 | 50.61483 | 5.34890 | 38283 ft | 435 kts | 300° |
| 2026-04-26 08:59 | 50.63007 | 5.30874 | 38287 ft | 421 kts | 300° |
| 2026-04-26 08:59 | 50.64470 | 5.27011 | 38281 ft | 408 kts | 300° |
| 2026-04-26 09:00 | 50.67318 | 5.19473 | 38288 ft | 399 kts | 300° |
| 2026-04-26 09:00 | 50.70150 | 5.11958 | 38283 ft | 399 kts | 300° |
| 2026-04-26 09:01 | 50.72956 | 5.04489 | 38290 ft | 399 kts | 300° |
| 2026-04-26 09:01 | 50.75776 | 4.96960 | 38290 ft | 399 kts | 300° |
| 2026-04-26 09:02 | 50.78585 | 4.89437 | 38290 ft | 399 kts | 300° |
| 2026-04-26 09:02 | 50.81378 | 4.81936 | 38291 ft | 399 kts | 300° |
| 2026-04-26 09:03 | 50.84185 | 4.74376 | 38291 ft | 398 kts | 300° |
| 2026-04-26 09:03 | 50.86975 | 4.66839 | 38297 ft | 405 kts | 300° |
| 2026-04-26 09:04 | 50.89875 | 4.58981 | 38301 ft | 420 kts | 300° |
| 2026-04-26 09:04 | 50.92836 | 4.50935 | 38303 ft | 434 kts | 300° |
| 2026-04-26 09:05 | 50.95928 | 4.42503 | 38305 ft | 448 kts | 300° |
| 2026-04-26 09:05 | 50.99069 | 4.33910 | 38306 ft | 456 kts | 300° |
| 2026-04-26 09:06 | 51.02255 | 4.25164 | 38309 ft | 456 kts | 300° |
| 2026-04-26 09:06 | 51.05407 | 4.16485 | 38311 ft | 456 kts | 300° |
| 2026-04-26 09:07 | 51.08577 | 4.07724 | 38308 ft | 456 kts | 300° |
| 2026-04-26 09:07 | 51.11705 | 3.99050 | 38304 ft | 456 kts | 300° |
| 2026-04-26 09:08 | 51.14856 | 3.90279 | 38305 ft | 455 kts | 300° |
| 2026-04-26 09:08 | 51.18004 | 3.81493 | 38311 ft | 455 kts | 300° |
| 2026-04-26 09:09 | 51.21113 | 3.72781 | 38306 ft | 455 kts | 300° |
| 2026-04-26 09:09 | 51.24247 | 3.63995 | 38303 ft | 455 kts | 300° |
| 2026-04-26 09:10 | 51.27463 | 3.55351 | 38309 ft | 454 kts | 301° |
| 2026-04-26 09:10 | 51.30678 | 3.46712 | 38305 ft | 454 kts | 301° |
| 2026-04-26 09:11 | 51.33802 | 3.37960 | 38307 ft | 453 kts | 297° |
| 2026-04-26 09:11 | 51.36394 | 3.28782 | 38312 ft | 454 kts | 291° |
| 2026-04-26 09:12 | 51.38650 | 3.19329 | 38314 ft | 454 kts | 291° |
| 2026-04-26 09:12 | 51.40866 | 3.09927 | 38313 ft | 453 kts | 291° |
| 2026-04-26 09:13 | 51.43076 | 3.00528 | 38310 ft | 453 kts | 291° |
| 2026-04-26 09:13 | 51.45289 | 2.91083 | 38311 ft | 452 kts | 291° |
| 2026-04-26 09:14 | 51.47495 | 2.81629 | 38310 ft | 452 kts | 291° |
| 2026-04-26 09:14 | 51.49697 | 2.72149 | 38315 ft | 452 kts | 291° |
| 2026-04-26 09:15 | 51.51869 | 2.62756 | 38313 ft | 452 kts | 291° |
| 2026-04-26 09:15 | 51.54050 | 2.53279 | 38307 ft | 451 kts | 291° |
| 2026-04-26 09:16 | 51.56203 | 2.43880 | 38308 ft | 451 kts | 291° |
| 2026-04-26 09:16 | 51.57277 | 2.39167 | 38143 ft | 446 kts | 291° |
| 2026-04-26 09:16 | 51.58334 | 2.34527 | 37230 ft | 445 kts | 290° |
| 2026-04-26 09:16 | 51.59393 | 2.29872 | 35875 ft | 449 kts | 290° |
| 2026-04-26 09:17 | 51.60466 | 2.25159 | 34466 ft | 453 kts | 291° |
| 2026-04-26 09:17 | 51.61191 | 2.21966 | 33379 ft | 455 kts | 291° |
| 2026-04-26 09:17 | 51.62626 | 2.15628 | 31074 ft | 460 kts | 291° |
| 2026-04-26 09:17 | 51.63713 | 2.10819 | 29271 ft | 462 kts | 291° |
| 2026-04-26 09:18 | 51.64784 | 2.06072 | 27657 ft | 459 kts | 290° |
| 2026-04-26 09:18 | 51.65870 | 2.01231 | 26098 ft | 454 kts | 290° |
| 2026-04-26 09:18 | 51.66920 | 1.96540 | 24820 ft | 445 kts | 290° |
| 2026-04-26 09:18 | 51.67954 | 1.91907 | 23556 ft | 436 kts | 290° |
| 2026-04-26 09:19 | 51.68948 | 1.87441 | 22863 ft | 423 kts | 290° |
| 2026-04-26 09:19 | 51.69930 | 1.83024 | 22619 ft | 413 kts | 290° |
| 2026-04-26 09:19 | 51.70884 | 1.78724 | 22283 ft | 405 kts | 290° |
| 2026-04-26 09:19 | 51.71833 | 1.74435 | 21945 ft | 398 kts | 290° |
| 2026-04-26 09:20 | 51.72742 | 1.70322 | 21618 ft | 391 kts | 290° |
| 2026-04-26 09:20 | 51.73649 | 1.66208 | 21291 ft | 384 kts | 290° |
| 2026-04-26 09:20 | 51.74384 | 1.62129 | 20960 ft | 378 kts | 281° |
| 2026-04-26 09:20 | 51.74553 | 1.57970 | 20645 ft | 373 kts | 269° |
| 2026-04-26 09:21 | 51.74326 | 1.53803 | 20332 ft | 367 kts | 266° |
| 2026-04-26 09:21 | 51.74052 | 1.49739 | 20015 ft | 361 kts | 265° |
| 2026-04-26 09:21 | 51.73780 | 1.45751 | 19708 ft | 356 kts | 265° |
| 2026-04-26 09:21 | 51.73516 | 1.41824 | 19398 ft | 350 kts | 265° |
| 2026-04-26 09:22 | 51.73259 | 1.37971 | 19093 ft | 345 kts | 266° |
| 2026-04-26 09:22 | 51.73007 | 1.34152 | 18783 ft | 339 kts | 265° |
| 2026-04-26 09:22 | 51.72758 | 1.30406 | 18484 ft | 334 kts | 265° |
| 2026-04-26 09:22 | 51.72515 | 1.26724 | 18186 ft | 330 kts | 265° |
| 2026-04-26 09:23 | 51.72274 | 1.23080 | 17890 ft | 325 kts | 265° |
| 2026-04-26 09:23 | 51.72034 | 1.19459 | 17647 ft | 332 kts | 265° |
| 2026-04-26 09:23 | 51.71786 | 1.15740 | 17400 ft | 335 kts | 265° |
| 2026-04-26 09:23 | 51.71536 | 1.12014 | 17150 ft | 335 kts | 264° |
| 2026-04-26 09:24 | 51.71281 | 1.08248 | 16902 ft | 334 kts | 264° |
| 2026-04-26 09:24 | 51.71030 | 1.04549 | 16658 ft | 333 kts | 264° |
| 2026-04-26 09:24 | 51.70777 | 1.00860 | 16413 ft | 332 kts | 264° |
| 2026-04-26 09:24 | 51.70525 | 0.97179 | 16304 ft | 331 kts | 264° |
| 2026-04-26 09:25 | 51.70271 | 0.93494 | 16251 ft | 332 kts | 264° |
| 2026-04-26 09:25 | 51.70014 | 0.89780 | 15837 ft | 333 kts | 264° |
| 2026-04-26 09:25 | 51.69761 | 0.86139 | 15513 ft | 329 kts | 264° |
| 2026-04-26 09:25 | 51.69505 | 0.82473 | 15153 ft | 326 kts | 264° |
| 2026-04-26 09:26 | 51.69250 | 0.78836 | 14728 ft | 324 kts | 264° |
| 2026-04-26 09:26 | 51.68998 | 0.75275 | 13939 ft | 322 kts | 264° |
| 2026-04-26 09:26 | 51.68746 | 0.71725 | 13202 ft | 318 kts | 264° |
| 2026-04-26 09:26 | 51.68498 | 0.68249 | 12402 ft | 315 kts | 264° |
| 2026-04-26 09:27 | 51.68253 | 0.64763 | 11696 ft | 312 kts | 264° |
| 2026-04-26 09:27 | 51.68002 | 0.61264 | 11179 ft | 312 kts | 264° |
| 2026-04-26 09:27 | 51.67751 | 0.57795 | 10719 ft | 311 kts | 264° |
| 2026-04-26 09:27 | 51.67501 | 0.54341 | 10298 ft | 310 kts | 264° |
| 2026-04-26 09:28 | 51.67255 | 0.50895 | 9989 ft | 311 kts | 264° |
| 2026-04-26 09:28 | 51.66999 | 0.47419 | 9620 ft | 310 kts | 264° |
| 2026-04-26 09:28 | 51.66748 | 0.44036 | 9337 ft | 306 kts | 263° |
| 2026-04-26 09:28 | 51.66430 | 0.40619 | 9314 ft | 307 kts | 262° |
| 2026-04-26 09:29 | 51.66088 | 0.37252 | 9309 ft | 308 kts | 262° |
| 2026-04-26 09:29 | 51.65736 | 0.33834 | 9303 ft | 308 kts | 261° |
| 2026-04-26 09:29 | 51.65388 | 0.30450 | 9294 ft | 308 kts | 261° |
| 2026-04-26 09:29 | 51.65363 | 0.30210 | 9294 ft | 308 kts | 261° |
| 2026-04-26 09:30 | 51.65083 | 0.27480 | 9301 ft | 308 kts | 261° |
| 2026-04-26 09:30 | 51.64735 | 0.24074 | 9307 ft | 308 kts | 261° |
| 2026-04-26 09:30 | 51.64386 | 0.20672 | 9306 ft | 308 kts | 261° |
| 2026-04-26 09:30 | 51.64039 | 0.17281 | 9307 ft | 308 kts | 261° |
| 2026-04-26 09:31 | 51.63698 | 0.13918 | 9304 ft | 308 kts | 261° |
| 2026-04-26 09:31 | 51.63353 | 0.10510 | 9305 ft | 308 kts | 261° |
| 2026-04-26 09:31 | 51.63010 | 0.07116 | 9308 ft | 308 kts | 261° |
| 2026-04-26 09:31 | 51.62666 | 0.03719 | 9306 ft | 308 kts | 261° |
| 2026-04-26 09:32 | 51.62322 | 0.00326 | 9309 ft | 308 kts | 261° |
| 2026-04-26 09:32 | 51.61976 | -0.03085 | 9309 ft | 308 kts | 261° |
| 2026-04-26 09:32 | 51.61632 | -0.06482 | 9307 ft | 308 kts | 261° |
| 2026-04-26 09:32 | 51.61293 | -0.09809 | 9298 ft | 295 kts | 261° |
| 2026-04-26 09:33 | 51.60970 | -0.12969 | 9296 ft | 281 kts | 261° |
| 2026-04-26 09:33 | 51.60662 | -0.15983 | 9201 ft | 271 kts | 261° |
| 2026-04-26 09:33 | 51.60360 | -0.18934 | 9048 ft | 263 kts | 261° |
| 2026-04-26 09:33 | 51.60068 | -0.21790 | 8897 ft | 255 kts | 261° |
| 2026-04-26 09:34 | 51.59786 | -0.24540 | 8700 ft | 249 kts | 261° |
| 2026-04-26 09:34 | 51.59506 | -0.27276 | 8420 ft | 248 kts | 261° |
| 2026-04-26 09:34 | 51.59230 | -0.29984 | 8306 ft | 246 kts | 261° |
| 2026-04-26 09:34 | 51.58955 | -0.32699 | 8302 ft | 248 kts | 261° |
| 2026-04-26 09:35 | 51.58674 | -0.35455 | 8301 ft | 248 kts | 261° |
| 2026-04-26 09:35 | 51.58397 | -0.38179 | 8328 ft | 247 kts | 261° |
| 2026-04-26 09:35 | 51.58124 | -0.40870 | 8129 ft | 244 kts | 261° |
| 2026-04-26 09:35 | 51.57852 | -0.43557 | 7787 ft | 245 kts | 261° |
| 2026-04-26 09:36 | 51.57576 | -0.46283 | 7477 ft | 245 kts | 261° |
| 2026-04-26 09:36 | 51.57312 | -0.48929 | 7304 ft | 242 kts | 262° |
| 2026-04-26 09:36 | 51.57184 | -0.51609 | 7184 ft | 239 kts | 269° |
| 2026-04-26 09:36 | 51.57177 | -0.54275 | 6830 ft | 242 kts | 270° |
| 2026-04-26 09:37 | 51.57198 | -0.56988 | 6519 ft | 242 kts | 271° |
| 2026-04-26 09:37 | 51.57223 | -0.59656 | 6240 ft | 241 kts | 271° |
| 2026-04-26 09:37 | 51.57250 | -0.62357 | 5948 ft | 240 kts | 271° |
| 2026-04-26 09:37 | 51.57278 | -0.65031 | 5667 ft | 239 kts | 270° |
| 2026-04-26 09:38 | 51.57309 | -0.67706 | 5384 ft | 239 kts | 270° |
| 2026-04-26 09:38 | 51.57337 | -0.70155 | 5202 ft | 238 kts | 270° |
| 2026-04-26 09:38 | 51.57367 | -0.72797 | 4989 ft | 237 kts | 270° |
| 2026-04-26 09:38 | 51.57399 | -0.75432 | 4824 ft | 231 kts | 270° |
| 2026-04-26 09:39 | 51.57434 | -0.77941 | 4700 ft | 224 kts | 270° |
| 2026-04-26 09:39 | 51.57275 | -0.80379 | 4522 ft | 216 kts | 244° |
| 2026-04-26 09:39 | 51.56376 | -0.82201 | 4339 ft | 206 kts | 207° |
| 2026-04-26 09:39 | 51.55092 | -0.82853 | 4304 ft | 187 kts | 185° |
| 2026-04-26 09:40 | 51.53813 | -0.83043 | 4039 ft | 184 kts | 181° |
| 2026-04-26 09:40 | 51.52549 | -0.83163 | 3945 ft | 184 kts | 180° |
| 2026-04-26 09:40 | 51.51316 | -0.82768 | 3921 ft | 178 kts | 148° |
| 2026-04-26 09:40 | 51.50396 | -0.81525 | 3691 ft | 174 kts | 130° |
| 2026-04-26 09:41 | 51.49635 | -0.80012 | 3325 ft | 176 kts | 124° |
| 2026-04-26 09:41 | 51.48950 | -0.78413 | 3027 ft | 174 kts | 122° |
| 2026-04-26 09:41 | 51.48304 | -0.76785 | 2938 ft | 167 kts | 115° |
| 2026-04-26 09:41 | 51.47922 | -0.75130 | 2925 ft | 155 kts | 103° |
| 2026-04-26 09:42 | 51.47746 | -0.73419 | 2938 ft | 155 kts | 95° |
| 2026-04-26 09:42 | 51.47698 | -0.71730 | 2920 ft | 152 kts | 90° |
| 2026-04-26 09:42 | 51.47707 | -0.70034 | 2744 ft | 151 kts | 89° |
| 2026-04-26 09:42 | 51.47722 | -0.68358 | 2538 ft | 150 kts | 90° |
| 2026-04-26 09:43 | 51.47729 | -0.66692 | 2337 ft | 150 kts | 90° |
| 2026-04-26 09:43 | 51.47732 | -0.65037 | 2136 ft | 149 kts | 90° |
| 2026-04-26 09:43 | 51.47732 | -0.63385 | 1936 ft | 149 kts | 90° |
| 2026-04-26 09:43 | 51.47732 | -0.61732 | 1735 ft | 148 kts | 91° |
| 2026-04-26 09:44 | 51.47732 | -0.60069 | 1533 ft | 148 kts | 90° |
| 2026-04-26 09:44 | 51.47733 | -0.58429 | 1333 ft | 147 kts | 90° |
| 2026-04-26 09:44 | 51.47735 | -0.56802 | 1134 ft | 147 kts | 89° |
| 2026-04-26 09:44 | 51.47738 | -0.55156 | 934 ft | 146 kts | 89° |
| 2026-04-26 09:45 | 51.47741 | -0.53537 | 738 ft | 146 kts | 89° |
| 2026-04-26 09:45 | 51.47738 | -0.51910 | 516 ft | 145 kts | 89° |
| 2026-04-26 09:45 | 51.47744 | -0.50298 | 295 ft | 145 kts | 88° |
| 2026-04-26 09:45 | 51.47751 | -0.48685 | 137 ft | 144 kts | 89° |
| 2026-04-26 09:46 | 51.47755 | -0.47194 | 94 ft | 109 kts | 90° |
| 2026-04-26 09:46 | 51.47757 | -0.46253 | 91 ft | 62 kts | 89° |
| 2026-04-26 09:46 | 51.47760 | -0.45724 | 91 ft | 39 kts | 89° |
| 2026-04-26 09:46 | 51.47762 | -0.45323 | 96 ft | 32 kts | 93° |
| 2026-04-26 09:47 | 51.47684 | -0.45176 | 99 ft | 11 kts | 165° |
| 2026-04-26 09:47 | 51.47631 | -0.45176 | 99 ft | 6 kts | 182° |
| 2026-04-26 09:47 | 51.47621 | -0.45176 | 99 ft | 5 kts | 179° |
| 2026-04-26 09:47 | 51.47522 | -0.45146 | 100 ft | 13 kts | 130° |
| 2026-04-26 09:48 | 51.47509 | -0.45016 | 102 ft | 12 kts | 88° |
| 2026-04-26 09:48 | 51.47510 | -0.44669 | 99 ft | 28 kts | 92° |
| 2026-04-26 09:48 | 51.47465 | -0.44566 | 100 ft | 9 kts | 165° |
| 2026-04-26 09:48 | 51.47317 | -0.44557 | 103 ft | 20 kts | 181° |
| 2026-04-26 09:49 | 51.47278 | -0.44558 | 103 ft | 0 kts | 180° |
| 2026-04-26 09:49 | 51.47272 | -0.44558 | 103 ft | 2 kts | 180° |
| 2026-04-26 09:49 | 51.47162 | -0.44559 | 104 ft | 50 kts | 179° |
| 2026-04-26 09:49 | 51.46895 | -0.44545 | 104 ft | 18 kts | 184° |
| 2026-04-26 09:50 | 51.46815 | -0.44554 | 102 ft | 8 kts | 183° |
| 2026-04-26 09:50 | 51.46761 | -0.44591 | 100 ft | 9 kts | 236° |
| 2026-04-26 09:50 | 51.46753 | -0.44690 | 101 ft | 9 kts | 268° |
| 2026-04-26 09:50 | 51.46754 | -0.44810 | 103 ft | 11 kts | 284° |
| 2026-04-26 09:51 | 51.46784 | -0.44876 | 104 ft | 1 kts | 345° |
| 2026-04-26 09:51 | 51.46787 | -0.44876 | 104 ft | 6 kts | 353° |
| 2026-04-26 09:51 | 51.46836 | -0.44881 | 106 ft | 0 kts | 356° |